createdAt,value
2017-04-28T00:00:01.839Z,9.9
2017-04-28T00:05:01.915Z,10
2017-04-28T00:10:01.366Z,10
2017-04-28T00:15:01.207Z,10
2017-04-28T00:20:01.350Z,10
2017-04-28T00:25:01.259Z,10
2017-04-28T00:30:02.129Z,10
2017-04-28T00:35:01.250Z,10
2017-04-28T00:40:02.012Z,10
2017-04-28T00:45:02.106Z,10
2017-04-28T00:50:02.071Z,10
2017-04-28T00:55:01.829Z,10
2017-04-28T01:00:01.727Z,10
2017-04-28T01:05:01.770Z,10
2017-04-28T01:10:01.506Z,9.9
2017-04-28T01:15:01.556Z,10
2017-04-28T01:20:01.635Z,10
2017-04-28T01:25:01.373Z,10
2017-04-28T01:30:01.225Z,10
2017-04-28T01:35:01.207Z,10
2017-04-28T01:40:01.952Z,10
2017-04-28T01:45:01.949Z,10
2017-04-28T01:50:01.209Z,10
2017-04-28T01:55:01.930Z,9.9
2017-04-28T02:00:02.022Z,9.9
2017-04-28T02:05:02.167Z,9.9
2017-04-28T02:10:01.340Z,9.9
2017-04-28T02:15:01.466Z,9.9
2017-04-28T02:20:01.470Z,9.9
2017-04-28T02:25:01.378Z,9.9
2017-04-28T02:30:01.335Z,9.9
2017-04-28T02:35:01.873Z,9.9
2017-04-28T02:40:02.093Z,9.8
2017-04-28T02:45:01.148Z,9.8
2017-04-28T02:50:02.057Z,9.8
2017-04-28T02:55:01.902Z,9.8
2017-04-28T03:00:01.950Z,9.8
2017-04-28T03:05:01.274Z,9.8
2017-04-28T03:10:02.004Z,9.8
2017-04-28T03:15:02.048Z,9.8
2017-04-28T03:20:01.856Z,9.8
2017-04-28T03:25:01.825Z,9.8
2017-04-28T03:30:01.955Z,9.8
2017-04-28T03:35:01.825Z,9.8
2017-04-28T03:40:01.855Z,9.8
2017-04-28T03:45:01.180Z,9.8
2017-04-28T03:50:01.719Z,9.8
2017-04-28T03:55:01.898Z,9.8
2017-04-28T04:00:01.971Z,9.8
2017-04-28T04:05:01.546Z,9.8
2017-04-28T04:10:01.381Z,9.8
2017-04-28T04:15:02.135Z,9.7
2017-04-28T04:20:01.413Z,9.7
2017-04-28T04:25:02.095Z,9.7
2017-04-28T04:30:01.190Z,9.7
2017-04-28T04:35:01.903Z,9.7
2017-04-28T04:40:01.668Z,9.7
2017-04-28T04:45:01.544Z,9.8
2017-04-28T04:50:02.089Z,9.8
2017-04-28T04:55:01.552Z,9.8
2017-04-28T05:00:01.954Z,9.8
2017-04-28T05:05:01.818Z,9.8
2017-04-28T05:10:01.660Z,9.9
2017-04-28T05:15:01.854Z,9.9
2017-04-28T05:20:01.685Z,9.9
2017-04-28T05:25:02.028Z,9.9
2017-04-28T05:30:01.749Z,9.9
2017-04-28T05:35:01.638Z,9.9
2017-04-28T05:40:01.766Z,9.9
2017-04-28T05:45:01.642Z,9.9
2017-04-28T05:50:01.904Z,9.9
2017-04-28T05:55:01.374Z,9.9
2017-04-28T06:00:01.654Z,9.9
2017-04-28T06:05:02.042Z,9.9
2017-04-28T06:10:01.385Z,9.9
2017-04-28T06:15:01.831Z,9.9
2017-04-28T06:20:02.159Z,9.9
2017-04-28T06:25:01.503Z,9.9
2017-04-28T06:30:01.848Z,9.9
2017-04-28T06:35:02.071Z,9.9
2017-04-28T06:40:01.246Z,9.9
2017-04-28T06:45:01.908Z,9.9
2017-04-28T06:50:02.003Z,9.9
2017-04-28T06:55:02.112Z,9.9
2017-04-28T07:00:01.396Z,9.9
2017-04-28T07:05:02.006Z,9.9
2017-04-28T07:10:01.555Z,9.9
2017-04-28T07:15:01.830Z,9.9
2017-04-28T07:20:02.151Z,9.9
2017-04-28T07:25:01.358Z,10.8
2017-04-28T07:30:02.014Z,10.8
2017-04-28T07:35:01.671Z,10.8
2017-04-28T07:40:01.527Z,10.8
2017-04-28T07:45:02.090Z,10.8
2017-04-28T07:50:01.916Z,10.8
2017-04-28T07:55:01.471Z,10.8
2017-04-28T08:00:01.818Z,10.8
2017-04-28T08:05:02.037Z,10.8
2017-04-28T08:10:01.841Z,10.8
2017-04-28T08:15:01.455Z,10.8
2017-04-28T08:20:01.780Z,10.8
2017-04-28T08:25:01.739Z,10.8
2017-04-28T08:30:01.364Z,10.8
2017-04-28T08:35:01.985Z,10.8
2017-04-28T08:40:01.761Z,10.8
2017-04-28T08:45:01.385Z,10.8
2017-04-28T08:50:02.137Z,10.8
2017-04-28T08:55:01.630Z,10.8
2017-04-28T09:00:02.016Z,10.8
2017-04-28T09:05:01.837Z,10.8
2017-04-28T09:10:01.697Z,10.8
2017-04-28T09:15:01.206Z,11.1
2017-04-28T09:20:01.260Z,11.1
2017-04-28T09:25:01.366Z,11.1
2017-04-28T09:30:01.818Z,11.1
2017-04-28T09:35:01.335Z,11
2017-04-28T09:40:01.219Z,11.1
2017-04-28T09:45:01.978Z,11.1
2017-04-28T09:50:01.507Z,11
2017-04-28T09:55:01.919Z,11
2017-04-28T10:00:01.265Z,11
2017-04-28T10:05:02.002Z,11
2017-04-28T10:10:01.860Z,11
2017-04-28T10:15:01.453Z,10.9
2017-04-28T10:20:01.437Z,10.8
2017-04-28T10:25:01.523Z,10.8
2017-04-28T10:30:02.006Z,10.8
2017-04-28T10:35:01.619Z,10.8
2017-04-28T10:40:01.286Z,10.8
2017-04-28T10:45:01.950Z,10.8
2017-04-28T10:50:01.452Z,10.8
2017-04-28T10:55:01.828Z,10.8
2017-04-28T11:00:01.319Z,10.8
2017-04-28T11:05:02.068Z,10.8
2017-04-28T11:10:01.901Z,10.8
2017-04-28T11:15:01.344Z,10.8
2017-04-28T11:20:01.779Z,10.8
2017-04-28T11:25:01.901Z,10.9
2017-04-28T11:30:02.039Z,11
2017-04-28T11:35:01.881Z,11.1
2017-04-28T11:40:01.624Z,11.2
2017-04-28T11:45:01.472Z,11.3
2017-04-28T11:50:01.666Z,11.3
2017-04-28T11:55:01.719Z,11.4
2017-04-28T12:00:01.210Z,11.4
2017-04-28T12:05:01.755Z,11.4
2017-04-28T12:10:01.614Z,11.6
2017-04-28T12:15:01.989Z,11.7
2017-04-28T12:20:01.770Z,11.8
2017-04-28T12:25:01.735Z,11.8
2017-04-28T12:30:01.929Z,11.9
2017-04-28T12:35:01.983Z,12.1
2017-04-28T12:40:01.788Z,12.2
2017-04-28T12:45:01.798Z,12.2
2017-04-28T12:50:02.061Z,12.3
2017-04-28T12:55:01.738Z,12.3
2017-04-28T13:00:02.023Z,12.4
2017-04-28T13:05:02.079Z,12.4
2017-04-28T13:10:02.164Z,12.5
2017-04-28T13:15:01.679Z,12.5
2017-04-28T13:20:01.367Z,12.8
2017-04-28T13:25:01.930Z,12.8
2017-04-28T13:30:01.760Z,12.8
2017-04-28T13:35:01.683Z,12.8
2017-04-28T13:40:01.669Z,12.8
2017-04-28T13:45:02.073Z,12.8
2017-04-28T13:50:01.772Z,12.8
2017-04-28T13:55:01.481Z,12.8
2017-04-28T14:00:01.853Z,12.7
2017-04-28T14:05:02.122Z,12.7
2017-04-28T14:10:11.240Z,12.8
2017-04-28T14:15:01.975Z,12.8
2017-04-28T14:20:01.543Z,12.8
2017-04-28T14:25:01.569Z,12.7
2017-04-28T14:30:01.827Z,12.6
2017-04-28T14:35:01.373Z,12.6
2017-04-28T14:40:02.137Z,12.3
2017-04-28T14:45:01.987Z,12
2017-04-28T14:50:01.434Z,11.5
2017-04-28T14:55:02.042Z,11.4
2017-04-28T15:00:01.336Z,11.4
2017-04-28T15:05:01.596Z,11.1
2017-04-28T15:10:01.729Z,11
2017-04-28T15:15:02.103Z,11
2017-04-28T15:20:01.203Z,10.8
2017-04-28T15:25:01.274Z,10.9
2017-04-28T15:30:01.562Z,10.9
2017-04-28T15:35:02.091Z,11
2017-04-28T15:40:01.761Z,10.9
2017-04-28T15:45:01.437Z,11
2017-04-28T15:50:01.883Z,10.9
2017-04-28T15:55:01.739Z,10.9
2017-04-28T16:00:02.173Z,10.9
2017-04-28T16:05:01.838Z,11
2017-04-28T16:10:01.358Z,11
2017-04-28T16:15:01.286Z,11
2017-04-28T16:20:01.859Z,11
2017-04-28T16:25:02.154Z,11
2017-04-28T16:30:01.698Z,10.9
2017-04-28T16:35:01.480Z,10.8
2017-04-28T16:40:01.401Z,10.8
2017-04-28T16:45:01.418Z,10.9
2017-04-28T16:50:01.594Z,10.9
2017-04-28T16:55:01.908Z,10.8
2017-04-28T17:00:02.157Z,10.8
2017-04-28T17:05:02.136Z,10.8
2017-04-28T17:10:01.766Z,10.8
2017-04-28T17:15:01.320Z,10.7
2017-04-28T17:20:01.653Z,10.6
2017-04-28T17:25:01.563Z,10.6
2017-04-28T17:30:02.113Z,10.6
2017-04-28T17:35:01.457Z,10.6
2017-04-28T17:40:01.366Z,10.6
2017-04-28T17:45:02.023Z,10.6
2017-04-28T17:50:02.400Z,10.6
2017-04-28T17:55:01.547Z,10.5
2017-04-28T18:00:01.836Z,10.5
2017-04-28T18:05:02.326Z,10.6
2017-04-28T18:10:01.217Z,10.6
2017-04-28T18:15:01.551Z,10.5
2017-04-28T18:20:02.011Z,10.5
2017-04-28T18:25:01.634Z,10.4
2017-04-28T18:30:01.735Z,10.4
2017-04-28T18:35:01.803Z,10.3
2017-04-28T18:40:01.495Z,10.3
2017-04-28T18:45:02.269Z,10.4
2017-04-28T18:50:02.043Z,10.3
2017-04-28T18:55:02.067Z,10.4
2017-04-28T19:00:01.604Z,10.3
2017-04-28T19:05:01.646Z,10.3
2017-04-28T19:10:01.195Z,10.2
2017-04-28T19:15:02.163Z,10.2
2017-04-28T19:20:02.063Z,10.2
2017-04-28T19:25:01.648Z,10.2
2017-04-28T19:30:02.000Z,10.1
2017-04-28T19:35:01.453Z,10.2
2017-04-28T19:40:02.210Z,10.1
2017-04-28T19:45:01.862Z,10.1
2017-04-28T19:50:02.092Z,10.1
2017-04-28T19:55:02.091Z,10
2017-04-28T20:00:01.900Z,10
2017-04-28T20:05:01.457Z,10
2017-04-28T20:10:02.001Z,10
2017-04-28T20:15:02.273Z,10
2017-04-28T20:20:01.940Z,10
2017-04-28T20:25:02.643Z,10
2017-04-28T20:30:01.319Z,10
2017-04-28T20:35:01.521Z,10
2017-04-28T20:40:02.137Z,10
2017-04-28T20:45:01.785Z,9.9
2017-04-28T20:50:01.830Z,9.9
2017-04-28T20:55:01.304Z,9.9
2017-04-28T21:00:01.601Z,9.9
2017-04-28T21:05:01.816Z,9.9
2017-04-28T21:10:01.232Z,9.9
2017-04-28T21:15:01.578Z,10
2017-04-28T21:20:01.276Z,9.9
2017-04-28T21:25:01.298Z,9.9
2017-04-28T21:30:01.939Z,9.9
2017-04-28T21:35:02.089Z,9.9
2017-04-28T21:40:02.152Z,9.8
2017-04-28T21:45:01.923Z,9.8
2017-04-28T21:50:02.221Z,9.8
2017-04-28T21:55:02.029Z,9.8
2017-04-28T22:00:01.298Z,9.8
2017-04-28T22:05:01.318Z,9.8
2017-04-28T22:10:02.196Z,9.7
2017-04-28T22:15:01.857Z,9.7
2017-04-28T22:20:01.743Z,9.7
2017-04-28T22:25:01.787Z,9.7
2017-04-28T22:30:01.716Z,9.6
2017-04-28T22:35:01.460Z,9.6
2017-04-28T22:40:01.264Z,9.6
2017-04-28T22:45:01.408Z,9.6
2017-04-28T22:50:01.991Z,9.6
2017-04-28T22:55:02.413Z,9.7
2017-04-28T23:00:01.818Z,9.6
2017-04-28T23:05:01.911Z,9.6
2017-04-28T23:10:01.668Z,9.6
2017-04-28T23:15:01.942Z,9.6
2017-04-28T23:20:02.103Z,9.6
2017-04-28T23:25:02.133Z,9.6
2017-04-28T23:30:01.450Z,9.6
2017-04-28T23:35:01.197Z,9.6
2017-04-28T23:40:01.627Z,9.6
2017-04-28T23:45:02.134Z,9.6
2017-04-28T23:50:01.923Z,9.6
2017-04-28T23:55:01.683Z,9.6
